createdAt,value
2022-11-14T00:01:10.038Z,12.60
2022-11-14T00:03:38.362Z,12.70
2022-11-14T00:06:06.824Z,13.52
2022-11-14T00:08:34.170Z,14.02
2022-11-14T00:11:01.385Z,13.95
2022-11-14T00:13:29.161Z,13.80
2022-11-14T00:15:56.851Z,14.88
2022-11-14T00:18:24.417Z,14.65
2022-11-14T00:20:52.740Z,14.32
2022-11-14T00:23:21.193Z,14.32
2022-11-14T00:25:49.747Z,14.40
2022-11-14T00:28:18.235Z,13.75
2022-11-14T00:30:48.983Z,16.10
2022-11-14T00:33:20.275Z,14.70
2022-11-14T00:35:55.042Z,15.65
2022-11-14T00:38:23.070Z,16.23
2022-11-14T00:40:53.040Z,16.40
2022-11-14T00:43:20.175Z,14.55
2022-11-14T00:45:48.575Z,14.55
2022-11-14T00:48:15.979Z,15.63
2022-11-14T00:50:43.382Z,15.35
2022-11-14T00:53:10.465Z,16.38
2022-11-14T00:55:37.671Z,16.10
2022-11-14T00:58:05.229Z,15.00
2022-11-14T01:00:32.399Z,15.90
2022-11-14T01:02:59.540Z,16.77
2022-11-14T01:05:26.886Z,16.15
2022-11-14T01:07:54.388Z,16.60
2022-11-14T01:10:24.108Z,16.90
2022-11-14T01:12:51.257Z,16.63
2022-11-14T01:15:18.386Z,17.83
2022-11-14T01:17:45.488Z,16.65
2022-11-14T01:20:12.845Z,17.42
2022-11-14T01:22:40.317Z,16.98
2022-11-14T01:25:08.420Z,16.20
2022-11-14T01:27:35.633Z,17.33
2022-11-14T01:30:03.123Z,18.02
2022-11-14T01:32:30.155Z,17.65
2022-11-14T01:34:57.408Z,17.98
2022-11-14T01:37:24.935Z,17.52
2022-11-14T01:39:52.064Z,17.80
2022-11-14T01:42:21.941Z,18.52
2022-11-14T01:44:53.323Z,18.50
2022-11-14T01:47:22.571Z,17.35
2022-11-14T01:49:52.561Z,18.65
2022-11-14T01:52:34.663Z,18.13
2022-11-14T01:55:02.865Z,18.52
2022-11-14T01:57:35.438Z,18.45
2022-11-14T02:00:09.181Z,18.88
2022-11-14T02:02:36.807Z,20.00
2022-11-14T02:05:06.825Z,18.83
2022-11-14T02:07:35.934Z,19.00
2022-11-14T02:10:06.018Z,18.63
2022-11-14T02:12:33.496Z,20.27
2022-11-14T02:15:04.344Z,19.40
2022-11-14T02:17:32.078Z,18.67
2022-11-14T02:20:11.837Z,19.05
2022-11-14T02:22:42.852Z,19.48
2022-11-14T02:25:11.070Z,19.17
2022-11-14T02:27:38.849Z,20.08
2022-11-14T02:30:07.892Z,19.55
2022-11-14T02:32:56.931Z,18.98
2022-11-14T02:35:22.433Z,20.60
2022-11-14T02:37:49.465Z,21.08
2022-11-14T02:40:17.018Z,20.17
2022-11-14T02:42:44.163Z,19.85
2022-11-14T02:45:12.076Z,20.17
2022-11-14T02:47:42.498Z,19.35
2022-11-14T02:50:09.939Z,20.08
2022-11-14T02:52:37.153Z,19.70
2022-11-14T02:55:05.204Z,20.00
2022-11-14T02:57:32.271Z,21.55
2022-11-14T02:59:59.428Z,21.45
2022-11-14T03:02:26.855Z,20.77
2022-11-14T03:04:54.036Z,21.23
2022-11-14T03:07:21.900Z,22.08
2022-11-14T03:09:49.564Z,20.85
2022-11-14T03:12:17.957Z,19.98
2022-11-14T03:14:45.430Z,20.92
2022-11-14T03:17:13.163Z,21.63
2022-11-14T03:19:41.136Z,20.10
2022-11-14T03:22:08.199Z,22.17
2022-11-14T03:24:38.142Z,20.55
2022-11-14T03:27:05.142Z,19.98
2022-11-14T03:29:32.144Z,21.23
2022-11-14T03:31:59.450Z,21.50
2022-11-14T03:34:26.803Z,20.15
2022-11-14T03:36:54.571Z,20.33
2022-11-14T03:39:24.408Z,22.75
2022-11-14T03:41:55.322Z,21.45
2022-11-14T03:44:23.195Z,21.20
2022-11-14T03:46:50.342Z,20.30
2022-11-14T03:49:17.461Z,21.48
2022-11-14T03:51:44.951Z,21.75
2022-11-14T03:54:12.719Z,22.45
2022-11-14T03:56:39.730Z,21.55
2022-11-14T03:59:06.769Z,20.73
2022-11-14T04:01:33.845Z,19.80
2022-11-14T04:04:01.387Z,19.83
2022-11-14T04:06:29.379Z,21.88
2022-11-14T04:08:57.118Z,21.85
2022-11-14T04:11:24.193Z,21.98
2022-11-14T04:13:51.198Z,20.90
2022-11-14T04:16:18.547Z,20.65
2022-11-14T04:18:46.055Z,21.27
2022-11-14T04:21:14.130Z,20.98
2022-11-14T04:23:41.120Z,21.08
2022-11-14T04:26:08.422Z,20.65
2022-11-14T04:28:35.523Z,20.50
2022-11-14T04:31:02.726Z,20.63
2022-11-14T04:33:30.079Z,21.05
2022-11-14T04:35:57.151Z,19.30
2022-11-14T04:38:24.220Z,20.40
2022-11-14T04:40:55.020Z,20.38
2022-11-14T04:43:22.774Z,19.52
2022-11-14T04:45:50.241Z,19.77
2022-11-14T04:48:17.650Z,19.40
2022-11-14T04:50:46.102Z,20.85
2022-11-14T04:53:13.425Z,19.85
2022-11-14T04:55:40.717Z,19.20
2022-11-14T04:58:07.772Z,19.38
2022-11-14T05:00:35.283Z,19.60
2022-11-14T05:03:06.378Z,18.85
2022-11-14T05:05:36.873Z,19.98
2022-11-14T05:08:06.495Z,18.35
2022-11-14T05:10:33.877Z,19.13
2022-11-14T05:13:01.174Z,18.40
2022-11-14T05:15:28.539Z,19.58
2022-11-14T05:17:57.352Z,18.83
2022-11-14T05:20:24.669Z,18.88
2022-11-14T05:22:56.232Z,19.73
2022-11-14T05:25:23.994Z,18.75
2022-11-14T05:27:51.347Z,19.38
2022-11-14T05:30:18.686Z,18.10
2022-11-14T05:32:46.054Z,18.40
2022-11-14T05:35:13.210Z,20.90
2022-11-14T05:37:40.214Z,22.45
2022-11-14T05:40:07.535Z,20.70
2022-11-14T05:42:34.980Z,19.88
2022-11-14T05:45:05.214Z,19.20
2022-11-14T05:47:32.217Z,18.58
2022-11-14T05:49:59.511Z,18.38
2022-11-14T05:52:26.655Z,18.33
2022-11-14T05:54:53.662Z,17.52
2022-11-14T05:57:22.935Z,18.40
2022-11-14T05:59:50.447Z,19.27
2022-11-14T06:02:17.779Z,17.35
2022-11-14T06:04:45.159Z,17.70
2022-11-14T06:07:16.256Z,17.35
2022-11-14T06:09:46.517Z,17.90
2022-11-14T06:12:13.749Z,17.42
2022-11-14T06:14:41.446Z,18.08
2022-11-14T06:17:08.906Z,17.67
2022-11-14T06:19:36.046Z,18.25
2022-11-14T06:22:04.325Z,17.85
2022-11-14T06:24:31.678Z,18.65
2022-11-14T06:26:59.064Z,18.20
2022-11-14T06:29:29.108Z,16.95
2022-11-14T06:31:59.062Z,16.25
2022-11-14T06:34:28.775Z,15.98
2022-11-14T06:36:56.359Z,17.60
2022-11-14T06:39:24.909Z,16.55
2022-11-14T06:41:52.127Z,16.90
2022-11-14T06:44:19.621Z,15.77
2022-11-14T06:46:46.670Z,16.52
2022-11-14T06:49:13.956Z,15.30
2022-11-14T06:51:41.654Z,15.88
2022-11-14T06:54:12.128Z,15.40
2022-11-14T06:56:39.168Z,15.13
2022-11-14T06:59:06.729Z,14.38
2022-11-14T07:01:34.201Z,14.57
2022-11-14T07:04:02.678Z,15.70
2022-11-14T07:06:30.867Z,15.50
2022-11-14T07:09:01.118Z,15.90
2022-11-14T07:11:29.768Z,16.33
2022-11-14T07:13:58.595Z,15.90
2022-11-14T07:16:29.713Z,16.70
2022-11-14T07:18:57.143Z,15.63
2022-11-14T07:21:25.434Z,16.25
2022-11-14T07:24:00.139Z,15.98
2022-11-14T07:26:27.580Z,16.58
2022-11-14T07:29:01.815Z,15.75
2022-11-14T07:31:30.112Z,16.17
2022-11-14T07:33:57.253Z,16.17
2022-11-14T07:36:24.932Z,17.52
2022-11-14T07:39:01.176Z,18.42
2022-11-14T07:41:28.231Z,18.67
2022-11-14T07:43:55.532Z,18.98
2022-11-14T07:46:22.560Z,17.50
2022-11-14T07:48:49.641Z,17.35
2022-11-14T07:51:17.886Z,18.10
2022-11-14T07:53:45.826Z,18.40
2022-11-14T07:56:13.140Z,17.23
2022-11-14T07:58:41.937Z,18.17
2022-11-14T08:01:10.892Z,18.15
2022-11-14T08:03:43.920Z,18.65
2022-11-14T08:06:13.610Z,18.90
2022-11-14T08:08:40.693Z,19.60
2022-11-14T08:11:08.259Z,18.27
2022-11-14T08:13:35.314Z,18.50
2022-11-14T08:16:11.076Z,20.23
2022-11-14T08:18:40.573Z,19.33
2022-11-14T08:21:08.147Z,17.77
2022-11-14T08:23:35.581Z,18.60
2022-11-14T08:26:03.126Z,17.73
2022-11-14T08:28:30.560Z,18.02
2022-11-14T08:31:02.265Z,18.67
2022-11-14T08:33:30.655Z,18.15
2022-11-14T08:36:01.980Z,17.88
2022-11-14T08:38:29.601Z,17.05
2022-11-14T08:41:01.012Z,17.05
2022-11-14T08:43:28.549Z,16.75
2022-11-14T08:46:02.348Z,17.30
2022-11-14T08:48:30.003Z,17.58
2022-11-14T08:50:57.874Z,16.67
2022-11-14T08:53:28.215Z,16.85
2022-11-14T08:55:55.571Z,17.20
2022-11-14T08:58:22.684Z,17.85
2022-11-14T09:00:51.945Z,16.60
2022-11-14T09:03:19.397Z,16.65
2022-11-14T09:05:51.675Z,16.08
2022-11-14T09:08:19.040Z,14.60
2022-11-14T09:10:47.622Z,14.23
2022-11-14T09:13:15.144Z,14.80
2022-11-14T09:15:43.087Z,13.77
2022-11-14T09:18:11.605Z,13.65
2022-11-14T09:20:40.523Z,12.38
2022-11-14T09:23:08.548Z,12.32
2022-11-14T09:25:36.719Z,12.77
2022-11-14T09:28:05.162Z,12.60
2022-11-14T09:30:32.837Z,11.40
2022-11-14T09:33:03.676Z,12.00
2022-11-14T09:35:36.422Z,12.52
2022-11-14T09:38:07.619Z,11.05
2022-11-14T09:40:53.033Z,10.43
2022-11-14T09:43:35.049Z,10.60
2022-11-14T09:46:12.623Z,10.85
2022-11-14T09:48:40.338Z,11.05
2022-11-14T09:51:14.931Z,10.85
2022-11-14T09:53:50.878Z,9.93
2022-11-14T09:56:30.413Z,10.00
2022-11-14T09:58:57.733Z,10.70
2022-11-14T10:01:44.196Z,10.77
2022-11-14T10:04:24.086Z,10.65
2022-11-14T10:07:12.363Z,11.15
2022-11-14T10:09:46.946Z,11.40
2022-11-14T10:12:27.733Z,11.25
2022-11-14T10:15:00.736Z,10.43
2022-11-14T10:17:42.193Z,10.45
2022-11-14T10:20:16.451Z,11.05
2022-11-14T10:23:01.625Z,10.48
2022-11-14T10:25:43.670Z,10.68
2022-11-14T10:28:20.800Z,10.55
2022-11-14T10:31:08.523Z,11.30
2022-11-14T10:33:48.199Z,10.38
2022-11-14T10:36:26.575Z,10.23
2022-11-14T10:39:10.386Z,10.48
2022-11-14T10:44:27.656Z,10.57
2022-11-14T10:46:56.946Z,9.70
2022-11-14T10:49:25.239Z,10.95
2022-11-14T10:51:57.769Z,11.13
2022-11-14T10:54:43.348Z,11.00
2022-11-14T10:57:18.514Z,10.88
2022-11-14T10:59:46.087Z,10.73
2022-11-14T11:02:13.975Z,11.15
2022-11-14T11:04:45.924Z,10.43
2022-11-14T11:07:36.600Z,10.95
2022-11-14T11:10:26.609Z,10.43
2022-11-14T11:12:54.505Z,11.05
2022-11-14T11:15:21.937Z,11.60
2022-11-14T11:17:56.351Z,10.75
2022-11-14T11:20:37.634Z,10.77
2022-11-14T11:23:06.698Z,11.38
2022-11-14T11:25:34.689Z,10.95
2022-11-14T11:28:15.804Z,11.10
2022-11-14T11:30:56.788Z,11.48
2022-11-14T11:33:26.231Z,11.05
2022-11-14T11:35:56.600Z,10.57
2022-11-14T11:38:26.394Z,11.73
2022-11-14T11:40:55.322Z,10.88
2022-11-14T11:43:38.905Z,10.88
2022-11-14T11:46:42.023Z,11.10
2022-11-14T11:49:32.519Z,10.88
2022-11-14T11:52:04.231Z,11.35
2022-11-14T11:54:34.403Z,12.13
2022-11-14T11:57:10.410Z,11.05
2022-11-14T11:59:41.516Z,10.50
2022-11-14T12:02:17.888Z,10.52
2022-11-14T12:04:45.766Z,11.65
2022-11-14T12:07:18.834Z,11.32
2022-11-14T12:12:39.328Z,10.80
2022-11-14T12:15:12.513Z,12.25
2022-11-14T12:17:52.038Z,11.35
2022-11-14T12:20:33.905Z,11.98
2022-11-14T12:23:21.182Z,11.57
2022-11-14T12:26:07.191Z,12.57
2022-11-14T12:28:45.591Z,12.77
2022-11-14T12:31:15.297Z,15.00
2022-11-14T12:33:49.668Z,15.82
2022-11-14T12:36:17.252Z,16.38
2022-11-14T12:38:49.053Z,17.52
2022-11-14T12:41:31.271Z,16.08
2022-11-14T12:44:17.577Z,15.95
2022-11-14T12:47:13.451Z,15.40
2022-11-14T12:49:50.033Z,15.65
2022-11-14T12:52:36.067Z,15.95
2022-11-14T12:55:03.561Z,17.55
2022-11-14T12:57:49.274Z,15.13
2022-11-14T13:00:16.876Z,17.20
2022-11-14T13:02:46.828Z,15.55
2022-11-14T13:05:34.321Z,15.80
2022-11-14T13:08:04.296Z,15.57
2022-11-14T13:10:33.408Z,16.27
2022-11-14T13:13:29.632Z,15.85
2022-11-14T13:16:17.346Z,15.57
2022-11-14T13:19:21.365Z,15.07
2022-11-14T13:22:08.594Z,15.95
2022-11-14T13:25:10.643Z,15.27
2022-11-14T13:28:07.319Z,15.88
2022-11-14T13:30:44.374Z,16.08
2022-11-14T13:33:32.628Z,16.42
2022-11-14T13:36:05.388Z,16.55
2022-11-14T13:38:41.172Z,15.63
2022-11-14T13:41:27.349Z,15.93
2022-11-14T13:44:14.791Z,15.50
2022-11-14T13:47:01.163Z,16.10
2022-11-14T13:49:28.446Z,15.52
2022-11-14T13:51:55.792Z,16.58
2022-11-14T13:54:22.959Z,16.73
2022-11-14T13:57:01.763Z,16.17
2022-11-14T13:59:37.806Z,17.33
2022-11-14T14:02:11.114Z,17.50
2022-11-14T14:04:46.401Z,17.02
2022-11-14T14:07:35.876Z,16.95
2022-11-14T14:10:15.410Z,18.63
2022-11-14T14:12:45.578Z,17.50
2022-11-14T14:15:15.399Z,18.75
2022-11-14T14:17:52.814Z,19.52
2022-11-14T14:20:38.762Z,20.50
2022-11-14T14:23:26.699Z,20.95
2022-11-14T14:26:00.224Z,20.13
2022-11-14T14:28:27.586Z,20.13
2022-11-14T14:31:02.339Z,19.58
2022-11-14T14:33:31.631Z,19.92
2022-11-14T14:35:58.723Z,20.48
2022-11-14T14:38:27.445Z,20.75
2022-11-14T14:40:56.110Z,20.02
2022-11-14T14:43:31.263Z,20.45
2022-11-14T14:45:58.622Z,19.00
2022-11-14T14:48:28.688Z,20.77
2022-11-14T14:50:57.319Z,19.55
2022-11-14T14:53:27.527Z,19.85
2022-11-14T14:56:02.367Z,20.60
2022-11-14T14:58:32.874Z,19.55
2022-11-14T15:01:05.627Z,19.35
2022-11-14T15:03:37.109Z,20.88
2022-11-14T15:06:06.961Z,19.63
2022-11-14T15:08:37.700Z,18.27
2022-11-14T15:11:05.379Z,19.17
2022-11-14T15:13:32.934Z,19.30
2022-11-14T15:16:01.818Z,19.75
2022-11-14T15:18:30.893Z,19.65
2022-11-14T15:21:17.844Z,19.63
2022-11-14T15:23:45.250Z,19.48
2022-11-14T15:26:14.280Z,18.90
2022-11-14T15:28:41.365Z,18.50
2022-11-14T15:31:16.481Z,18.92
2022-11-14T15:33:44.356Z,18.23
2022-11-14T15:36:17.633Z,19.52
2022-11-14T15:39:04.124Z,19.10
2022-11-14T15:41:32.392Z,19.75
2022-11-14T15:44:02.148Z,18.98
2022-11-14T15:46:39.290Z,18.67
2022-11-14T15:49:15.790Z,18.55
2022-11-14T15:51:44.520Z,18.05
2022-11-14T15:54:47.441Z,18.55
2022-11-14T15:57:16.653Z,18.38
2022-11-14T15:59:46.418Z,18.50
2022-11-14T16:02:16.390Z,17.95
2022-11-14T16:04:47.983Z,17.17
2022-11-14T16:07:16.390Z,18.60
2022-11-14T16:09:44.275Z,18.88
2022-11-14T16:12:11.747Z,18.30
2022-11-14T16:14:41.366Z,20.25
2022-11-14T16:17:18.312Z,19.45
2022-11-14T16:19:46.891Z,19.08
2022-11-14T16:22:16.535Z,18.52
2022-11-14T16:24:44.063Z,18.98
2022-11-14T16:27:11.229Z,18.42
2022-11-14T16:29:38.306Z,18.92
2022-11-14T16:32:05.586Z,19.10
2022-11-14T16:34:33.254Z,19.15
2022-11-14T16:37:01.648Z,18.45
2022-11-14T16:39:29.301Z,17.48
2022-11-14T16:42:01.498Z,17.55
2022-11-14T16:44:29.233Z,17.30
2022-11-14T16:46:59.517Z,17.85
2022-11-14T16:49:26.738Z,18.10
2022-11-14T16:51:56.860Z,16.67
2022-11-14T16:54:25.534Z,16.88
2022-11-14T16:56:53.195Z,17.38
2022-11-14T16:59:20.286Z,19.60
2022-11-14T17:01:48.713Z,19.05
2022-11-14T17:04:16.285Z,18.75
2022-11-14T17:06:43.873Z,18.95
2022-11-14T17:09:12.963Z,19.17
2022-11-14T17:11:40.237Z,19.38
2022-11-14T17:14:07.374Z,20.02
2022-11-14T17:16:34.543Z,18.55
2022-11-14T17:19:02.258Z,17.33
2022-11-14T17:21:29.521Z,19.17
2022-11-14T17:24:01.485Z,18.50
2022-11-14T17:26:29.257Z,17.30
2022-11-14T17:28:56.440Z,19.05
2022-11-14T17:31:24.071Z,20.02
2022-11-14T17:33:54.988Z,19.85
2022-11-14T17:36:23.359Z,18.58
2022-11-14T17:38:50.408Z,20.02
2022-11-14T17:41:17.621Z,19.00
2022-11-14T17:43:45.166Z,19.60
2022-11-14T17:46:15.883Z,18.98
2022-11-14T17:48:44.110Z,20.55
2022-11-14T17:51:12.570Z,19.55
2022-11-14T17:53:40.205Z,19.90
2022-11-14T17:56:10.465Z,20.40
2022-11-14T17:58:37.595Z,19.90
2022-11-14T18:01:09.681Z,19.73
2022-11-14T18:03:37.132Z,19.35
2022-11-14T18:06:11.237Z,18.38
2022-11-14T18:08:38.575Z,19.85
2022-11-14T18:11:06.770Z,19.95
2022-11-14T18:13:34.550Z,18.65
2022-11-14T18:16:06.344Z,19.13
2022-11-14T18:18:34.682Z,18.50
2022-11-14T18:21:18.751Z,19.23
2022-11-14T18:23:51.452Z,18.00
2022-11-14T18:26:19.249Z,17.57
2022-11-14T18:28:46.675Z,18.58
2022-11-14T18:31:14.026Z,18.77
2022-11-14T18:33:42.292Z,18.98
2022-11-14T18:36:12.483Z,17.85
2022-11-14T18:38:40.401Z,18.95
2022-11-14T18:41:13.117Z,19.15
2022-11-14T18:43:40.512Z,17.88
2022-11-14T18:46:15.672Z,18.27
2022-11-14T18:48:45.091Z,19.40
2022-11-14T18:51:16.572Z,18.95
2022-11-14T18:53:50.020Z,17.95
2022-11-14T18:56:19.434Z,17.88
2022-11-14T18:58:46.872Z,17.33
2022-11-14T19:01:27.176Z,17.50
2022-11-14T19:03:56.461Z,17.02
2022-11-14T19:06:23.895Z,16.13
2022-11-14T19:08:51.461Z,15.57
2022-11-14T19:11:37.538Z,16.15
2022-11-14T19:14:07.004Z,15.63
2022-11-14T19:16:35.856Z,15.25
2022-11-14T19:19:03.171Z,15.57
2022-11-14T19:21:30.660Z,15.55
2022-11-14T19:23:59.754Z,15.35
2022-11-14T19:26:27.922Z,15.95
2022-11-14T19:28:58.264Z,13.57
2022-11-14T19:31:27.526Z,14.65
2022-11-14T19:33:54.677Z,15.65
2022-11-14T19:36:52.754Z,14.48
2022-11-14T19:39:10.696Z,15.35
2022-11-14T19:41:37.926Z,14.15
2022-11-14T19:44:05.528Z,13.93
2022-11-14T19:46:33.171Z,15.20
2022-11-14T19:49:04.226Z,14.88
2022-11-14T19:51:32.970Z,13.85
2022-11-14T19:54:00.999Z,14.38
2022-11-14T19:56:31.086Z,14.10
2022-11-14T19:58:58.125Z,13.63
2022-11-14T20:01:26.737Z,14.00
2022-11-14T20:04:01.483Z,14.38
2022-11-14T20:06:34.422Z,15.02
2022-11-14T20:09:02.674Z,15.40
2022-11-14T20:11:30.647Z,15.88
2022-11-14T20:13:58.669Z,15.65
2022-11-14T20:16:30.537Z,15.32
2022-11-14T20:19:03.279Z,15.18
2022-11-14T20:21:32.099Z,15.23
2022-11-14T20:24:02.784Z,17.02
2022-11-14T20:26:30.073Z,16.50
2022-11-14T20:28:57.607Z,17.50
2022-11-14T20:31:29.108Z,18.25
2022-11-14T20:33:57.072Z,16.58
2022-11-14T20:36:29.460Z,16.17
2022-11-14T20:39:02.360Z,16.27
2022-11-14T20:41:29.410Z,15.63
2022-11-14T20:43:59.589Z,15.68
2022-11-14T20:46:29.632Z,15.05
2022-11-14T20:49:01.311Z,16.38
2022-11-14T20:51:28.513Z,14.68
2022-11-14T20:53:56.482Z,15.65
2022-11-14T20:56:23.648Z,15.73
2022-11-14T20:58:52.353Z,15.55
2022-11-14T21:01:20.133Z,14.88
2022-11-14T21:03:47.970Z,15.02
2022-11-14T21:06:16.240Z,14.73
2022-11-14T21:08:44.037Z,14.10
2022-11-14T21:11:17.921Z,15.50
2022-11-14T21:13:57.669Z,15.80
2022-11-14T21:16:27.483Z,15.25
2022-11-14T21:18:55.638Z,16.90
2022-11-14T21:21:25.225Z,16.35
2022-11-14T21:23:53.021Z,17.38
2022-11-14T21:26:22.246Z,17.38
2022-11-14T21:28:51.656Z,17.60
2022-11-14T21:31:26.763Z,17.67
2022-11-14T21:33:59.029Z,16.48
2022-11-14T21:36:46.659Z,16.75
2022-11-14T21:39:15.893Z,16.95
2022-11-14T21:41:43.951Z,17.92
2022-11-14T21:44:13.230Z,17.45
2022-11-14T21:46:41.505Z,16.98
2022-11-14T21:49:09.082Z,16.50
2022-11-14T21:51:36.509Z,17.55
2022-11-14T21:54:05.047Z,16.75
2022-11-14T21:56:33.147Z,16.75
2022-11-14T21:59:13.638Z,17.00
2022-11-14T22:02:07.902Z,16.50
2022-11-14T22:04:35.585Z,15.75
2022-11-14T22:07:04.084Z,16.02
2022-11-14T22:09:31.307Z,16.08
2022-11-14T22:11:58.575Z,14.95
2022-11-14T22:14:29.600Z,15.95
2022-11-14T22:16:58.157Z,16.25
2022-11-14T22:19:29.172Z,15.88
2022-11-14T22:22:02.211Z,15.52
2022-11-14T22:24:29.252Z,14.95
2022-11-14T22:26:58.693Z,15.38
2022-11-14T22:29:29.211Z,15.82
2022-11-14T22:31:57.014Z,14.90
2022-11-14T22:34:27.477Z,15.90
2022-11-14T22:36:54.495Z,15.80
2022-11-14T22:39:22.724Z,16.38
2022-11-14T22:41:49.906Z,16.25
2022-11-14T22:44:17.061Z,13.82
2022-11-14T22:46:44.336Z,15.68
2022-11-14T22:49:11.367Z,15.68
2022-11-14T22:51:38.771Z,16.50
2022-11-14T22:54:06.253Z,15.52
2022-11-14T22:56:33.911Z,16.85
2022-11-14T22:59:01.490Z,15.98
2022-11-14T23:01:31.403Z,15.80
2022-11-14T23:04:00.020Z,15.65
2022-11-14T23:06:28.143Z,15.23
2022-11-14T23:08:55.994Z,15.93
2022-11-14T23:11:27.267Z,15.50
2022-11-14T23:13:56.253Z,16.25
2022-11-14T23:16:26.082Z,16.63
2022-11-14T23:18:57.157Z,15.88
2022-11-14T23:21:26.733Z,15.27
2022-11-14T23:23:55.164Z,14.88
2022-11-14T23:26:23.142Z,15.35
2022-11-14T23:28:50.326Z,14.63
2022-11-14T23:31:21.155Z,14.77
2022-11-14T23:33:48.958Z,14.32
2022-11-14T23:36:16.342Z,15.10
2022-11-14T23:38:43.551Z,15.05
2022-11-14T23:41:21.416Z,15.73
2022-11-14T23:43:49.174Z,15.10
2022-11-14T23:46:16.652Z,15.80
2022-11-14T23:48:44.186Z,15.90
2022-11-14T23:51:13.723Z,16.83
2022-11-14T23:53:41.458Z,15.65
2022-11-14T23:56:11.790Z,17.58
2022-11-14T23:58:39.167Z,17.70
